sensor_id;sensor_type;location;lat;lon;timestamp;temperature;humidity
46720;DHT22;32452;51.382;-0.002;2022-08-20T00:01:45;17.40;62.50
46720;DHT22;32452;51.382;-0.002;2022-08-20T00:04:32;17.40;62.70
46720;DHT22;32452;51.382;-0.002;2022-08-20T00:07:18;17.40;63.00
46720;DHT22;32452;51.382;-0.002;2022-08-20T00:10:04;17.30;63.30
46720;DHT22;32452;51.382;-0.002;2022-08-20T00:12:51;17.30;63.60
46720;DHT22;32452;51.382;-0.002;2022-08-20T00:15:38;17.30;63.90
46720;DHT22;32452;51.382;-0.002;2022-08-20T00:18:24;17.30;64.20
46720;DHT22;32452;51.382;-0.002;2022-08-20T00:21:12;17.20;64.30
46720;DHT22;32452;51.382;-0.002;2022-08-20T00:24:04;17.20;64.60
46720;DHT22;32452;51.382;-0.002;2022-08-20T00:26:50;17.10;64.70
46720;DHT22;32452;51.382;-0.002;2022-08-20T00:29:37;17.10;65.00
46720;DHT22;32452;51.382;-0.002;2022-08-20T00:32:22;17.10;65.30
46720;DHT22;32452;51.382;-0.002;2022-08-20T00:35:09;17.00;65.40
46720;DHT22;32452;51.382;-0.002;2022-08-20T00:37:57;17.00;65.70
46720;DHT22;32452;51.382;-0.002;2022-08-20T00:40:49;17.00;65.90
46720;DHT22;32452;51.382;-0.002;2022-08-20T00:43:39;16.90;66.10
46720;DHT22;32452;51.382;-0.002;2022-08-20T00:46:26;16.90;66.40
46720;DHT22;32452;51.382;-0.002;2022-08-20T00:49:20;16.90;66.60
46720;DHT22;32452;51.382;-0.002;2022-08-20T00:52:17;16.80;66.70
46720;DHT22;32452;51.382;-0.002;2022-08-20T00:55:04;16.80;67.00
46720;DHT22;32452;51.382;-0.002;2022-08-20T00:57:54;16.80;67.20
46720;DHT22;32452;51.382;-0.002;2022-08-20T01:00:47;16.70;67.40
46720;DHT22;32452;51.382;-0.002;2022-08-20T01:03:34;16.70;67.60
46720;DHT22;32452;51.382;-0.002;2022-08-20T01:06:21;16.70;67.80
46720;DHT22;32452;51.382;-0.002;2022-08-20T01:09:07;16.70;68.00
46720;DHT22;32452;51.382;-0.002;2022-08-20T01:11:53;16.60;68.20
46720;DHT22;32452;51.382;-0.002;2022-08-20T01:14:40;16.60;68.50
46720;DHT22;32452;51.382;-0.002;2022-08-20T01:17:32;16.60;68.70
46720;DHT22;32452;51.382;-0.002;2022-08-20T01:20:23;16.60;68.90
46720;DHT22;32452;51.382;-0.002;2022-08-20T01:26:35;16.50;69.20
46720;DHT22;32452;51.382;-0.002;2022-08-20T01:29:24;16.50;69.40
46720;DHT22;32452;51.382;-0.002;2022-08-20T01:32:12;16.40;69.70
46720;DHT22;32452;51.382;-0.002;2022-08-20T01:34:57;16.40;69.90
46720;DHT22;32452;51.382;-0.002;2022-08-20T01:37:44;16.40;70.10
46720;DHT22;32452;51.382;-0.002;2022-08-20T01:43:53;16.40;70.70
46720;DHT22;32452;51.382;-0.002;2022-08-20T01:46:45;16.30;70.80
46720;DHT22;32452;51.382;-0.002;2022-08-20T01:49:32;16.30;71.10
46720;DHT22;32452;51.382;-0.002;2022-08-20T01:52:36;16.30;71.30
46720;DHT22;32452;51.382;-0.002;2022-08-20T01:55:24;16.30;71.60
46720;DHT22;32452;51.382;-0.002;2022-08-20T01:58:11;16.20;71.90
46720;DHT22;32452;51.382;-0.002;2022-08-20T02:00:57;16.20;73.00
46720;DHT22;32452;51.382;-0.002;2022-08-20T02:03:42;16.20;72.50
46720;DHT22;32452;51.382;-0.002;2022-08-20T02:06:32;16.10;72.70
46720;DHT22;32452;51.382;-0.002;2022-08-20T02:09:18;16.10;73.10
46720;DHT22;32452;51.382;-0.002;2022-08-20T02:12:05;16.10;73.30
46720;DHT22;32452;51.382;-0.002;2022-08-20T02:14:52;16.10;73.60
46720;DHT22;32452;51.382;-0.002;2022-08-20T02:17:39;16.10;73.90
46720;DHT22;32452;51.382;-0.002;2022-08-20T02:20:28;16.00;74.10
46720;DHT22;32452;51.382;-0.002;2022-08-20T02:23:14;16.00;74.50
46720;DHT22;32452;51.382;-0.002;2022-08-20T02:26:00;16.00;74.70
46720;DHT22;32452;51.382;-0.002;2022-08-20T02:28:47;16.00;75.10
46720;DHT22;32452;51.382;-0.002;2022-08-20T02:31:35;16.00;75.50
46720;DHT22;32452;51.382;-0.002;2022-08-20T02:34:28;16.00;75.90
46720;DHT22;32452;51.382;-0.002;2022-08-20T02:37:13;16.00;76.30
46720;DHT22;32452;51.382;-0.002;2022-08-20T02:40:02;15.90;76.60
46720;DHT22;32452;51.382;-0.002;2022-08-20T02:42:48;15.90;77.00
46720;DHT22;32452;51.382;-0.002;2022-08-20T02:45:34;15.90;77.30
46720;DHT22;32452;51.382;-0.002;2022-08-20T02:48:21;15.90;77.70
46720;DHT22;32452;51.382;-0.002;2022-08-20T02:51:07;15.90;78.10
46720;DHT22;32452;51.382;-0.002;2022-08-20T02:53:53;15.90;78.50
46720;DHT22;32452;51.382;-0.002;2022-08-20T02:56:38;15.80;78.80
46720;DHT22;32452;51.382;-0.002;2022-08-20T02:59:24;15.80;79.10
46720;DHT22;32452;51.382;-0.002;2022-08-20T03:02:10;15.80;79.60
46720;DHT22;32452;51.382;-0.002;2022-08-20T03:04:56;15.80;80.00
46720;DHT22;32452;51.382;-0.002;2022-08-20T03:07:45;15.70;80.30
46720;DHT22;32452;51.382;-0.002;2022-08-20T03:10:33;15.70;80.80
46720;DHT22;32452;51.382;-0.002;2022-08-20T03:13:20;15.70;81.20
46720;DHT22;32452;51.382;-0.002;2022-08-20T03:16:06;15.70;81.60
46720;DHT22;32452;51.382;-0.002;2022-08-20T03:18:52;15.70;81.80
46720;DHT22;32452;51.382;-0.002;2022-08-20T03:21:38;15.60;82.20
46720;DHT22;32452;51.382;-0.002;2022-08-20T03:24:24;15.60;82.50
46720;DHT22;32452;51.382;-0.002;2022-08-20T03:27:10;15.60;82.90
46720;DHT22;32452;51.382;-0.002;2022-08-20T03:29:56;15.60;83.30
46720;DHT22;32452;51.382;-0.002;2022-08-20T03:32:43;15.50;83.60
46720;DHT22;32452;51.382;-0.002;2022-08-20T03:35:30;15.50;83.90
46720;DHT22;32452;51.382;-0.002;2022-08-20T03:38:18;15.50;84.30
46720;DHT22;32452;51.382;-0.002;2022-08-20T03:41:17;15.50;84.60
46720;DHT22;32452;51.382;-0.002;2022-08-20T03:44:03;15.40;84.90
46720;DHT22;32452;51.382;-0.002;2022-08-20T03:46:51;15.40;85.30
46720;DHT22;32452;51.382;-0.002;2022-08-20T03:49:36;15.40;85.60
46720;DHT22;32452;51.382;-0.002;2022-08-20T03:52:22;15.40;85.90
46720;DHT22;32452;51.382;-0.002;2022-08-20T03:55:09;15.40;86.30
46720;DHT22;32452;51.382;-0.002;2022-08-20T03:57:59;15.40;86.80
46720;DHT22;32452;51.382;-0.002;2022-08-20T04:00:49;15.30;87.00
46720;DHT22;32452;51.382;-0.002;2022-08-20T04:03:35;15.30;87.40
46720;DHT22;32452;51.382;-0.002;2022-08-20T04:06:20;15.30;87.70
46720;DHT22;32452;51.382;-0.002;2022-08-20T04:09:06;15.30;88.00
46720;DHT22;32452;51.382;-0.002;2022-08-20T04:11:54;15.30;88.30
46720;DHT22;32452;51.382;-0.002;2022-08-20T04:14:42;15.30;88.40
46720;DHT22;32452;51.382;-0.002;2022-08-20T04:17:28;15.20;88.70
46720;DHT22;32452;51.382;-0.002;2022-08-20T04:20:16;15.20;89.10
46720;DHT22;32452;51.382;-0.002;2022-08-20T04:23:04;15.20;89.30
46720;DHT22;32452;51.382;-0.002;2022-08-20T04:25:50;15.20;89.60
46720;DHT22;32452;51.382;-0.002;2022-08-20T04:28:35;15.20;89.70
46720;DHT22;32452;51.382;-0.002;2022-08-20T04:31:21;15.20;89.90
46720;DHT22;32452;51.382;-0.002;2022-08-20T04:34:10;15.20;89.90
46720;DHT22;32452;51.382;-0.002;2022-08-20T04:36:55;15.10;89.90
46720;DHT22;32452;51.382;-0.002;2022-08-20T04:39:41;15.10;89.90
46720;DHT22;32452;51.382;-0.002;2022-08-20T04:42:26;15.00;89.90
46720;DHT22;32452;51.382;-0.002;2022-08-20T04:45:13;15.00;90.00
46720;DHT22;32452;51.382;-0.002;2022-08-20T04:48:04;15.00;90.10
46720;DHT22;32452;51.382;-0.002;2022-08-20T04:50:54;15.00;90.20
46720;DHT22;32452;51.382;-0.002;2022-08-20T04:53:43;15.00;90.30
46720;DHT22;32452;51.382;-0.002;2022-08-20T04:56:36;15.00;90.40
46720;DHT22;32452;51.382;-0.002;2022-08-20T04:59:24;15.00;90.50
46720;DHT22;32452;51.382;-0.002;2022-08-20T05:02:12;15.00;90.70
46720;DHT22;32452;51.382;-0.002;2022-08-20T05:05:01;14.90;90.70
46720;DHT22;32452;51.382;-0.002;2022-08-20T05:07:47;15.00;90.80
46720;DHT22;32452;51.382;-0.002;2022-08-20T05:10:33;15.00;90.90
46720;DHT22;32452;51.382;-0.002;2022-08-20T05:13:21;15.00;90.90
46720;DHT22;32452;51.382;-0.002;2022-08-20T05:16:11;15.00;90.90
46720;DHT22;32452;51.382;-0.002;2022-08-20T05:18:56;15.00;90.90
46720;DHT22;32452;51.382;-0.002;2022-08-20T05:21:42;15.00;90.80
46720;DHT22;32452;51.382;-0.002;2022-08-20T05:24:28;15.00;90.90
46720;DHT22;32452;51.382;-0.002;2022-08-20T05:27:13;15.00;90.90
46720;DHT22;32452;51.382;-0.002;2022-08-20T05:30:10;15.00;90.90
46720;DHT22;32452;51.382;-0.002;2022-08-20T05:33:05;14.90;90.90
46720;DHT22;32452;51.382;-0.002;2022-08-20T05:35:52;14.90;90.90
46720;DHT22;32452;51.382;-0.002;2022-08-20T05:38:38;14.90;91.00
46720;DHT22;32452;51.382;-0.002;2022-08-20T05:41:23;14.90;91.10
46720;DHT22;32452;51.382;-0.002;2022-08-20T05:44:14;14.90;91.20
46720;DHT22;32452;51.382;-0.002;2022-08-20T05:46:59;15.00;91.20
46720;DHT22;32452;51.382;-0.002;2022-08-20T05:49:48;15.00;91.30
46720;DHT22;32452;51.382;-0.002;2022-08-20T05:52:34;15.00;91.30
46720;DHT22;32452;51.382;-0.002;2022-08-20T05:55:19;15.10;91.70
46720;DHT22;32452;51.382;-0.002;2022-08-20T05:58:08;15.20;91.40
46720;DHT22;32452;51.382;-0.002;2022-08-20T06:00:58;15.20;91.40
46720;DHT22;32452;51.382;-0.002;2022-08-20T06:03:44;15.20;91.40
46720;DHT22;32452;51.382;-0.002;2022-08-20T06:06:48;15.30;91.40
46720;DHT22;32452;51.382;-0.002;2022-08-20T06:09:36;15.50;91.60
46720;DHT22;32452;51.382;-0.002;2022-08-20T06:12:21;16.00;91.60
46720;DHT22;32452;51.382;-0.002;2022-08-20T06:15:07;17.00;90.70
46720;DHT22;32452;51.382;-0.002;2022-08-20T06:17:53;18.20;88.10
46720;DHT22;32452;51.382;-0.002;2022-08-20T06:20:42;19.10;84.60
46720;DHT22;32452;51.382;-0.002;2022-08-20T06:23:28;19.90;81.10
46720;DHT22;32452;51.382;-0.002;2022-08-20T06:26:34;20.70;78.30
46720;DHT22;32452;51.382;-0.002;2022-08-20T06:29:19;21.50;74.10
46720;DHT22;32452;51.382;-0.002;2022-08-20T06:32:05;21.50;72.30
46720;DHT22;32452;51.382;-0.002;2022-08-20T06:34:51;21.80;71.00
46720;DHT22;32452;51.382;-0.002;2022-08-20T06:37:40;22.40;69.10
46720;DHT22;32452;51.382;-0.002;2022-08-20T06:40:28;22.90;66.90
46720;DHT22;32452;51.382;-0.002;2022-08-20T06:43:13;23.40;64.90
46720;DHT22;32452;51.382;-0.002;2022-08-20T06:45:59;23.80;63.30
46720;DHT22;32452;51.382;-0.002;2022-08-20T06:48:46;24.10;61.70
46720;DHT22;32452;51.382;-0.002;2022-08-20T06:51:32;24.40;60.40
46720;DHT22;32452;51.382;-0.002;2022-08-20T06:54:18;24.60;59.30
46720;DHT22;32452;51.382;-0.002;2022-08-20T06:57:04;24.80;58.50
46720;DHT22;32452;51.382;-0.002;2022-08-20T06:59:49;25.00;57.80
46720;DHT22;32452;51.382;-0.002;2022-08-20T07:02:39;25.30;57.10
46720;DHT22;32452;51.382;-0.002;2022-08-20T07:05:28;25.50;56.10
46720;DHT22;32452;51.382;-0.002;2022-08-20T07:08:15;25.70;55.50
46720;DHT22;32452;51.382;-0.002;2022-08-20T07:11:02;25.90;54.80
46720;DHT22;32452;51.382;-0.002;2022-08-20T07:13:48;26.00;54.90
46720;DHT22;32452;51.382;-0.002;2022-08-20T07:16:33;26.10;53.80
46720;DHT22;32452;51.382;-0.002;2022-08-20T07:19:19;26.30;53.50
46720;DHT22;32452;51.382;-0.002;2022-08-20T07:22:04;26.50;52.80
46720;DHT22;32452;51.382;-0.002;2022-08-20T07:24:50;26.60;52.30
46720;DHT22;32452;51.382;-0.002;2022-08-20T07:27:36;26.80;51.80
46720;DHT22;32452;51.382;-0.002;2022-08-20T07:30:25;26.90;51.30
46720;DHT22;32452;51.382;-0.002;2022-08-20T07:33:42;27.10;50.80
46720;DHT22;32452;51.382;-0.002;2022-08-20T07:36:28;27.20;50.60
46720;DHT22;32452;51.382;-0.002;2022-08-20T07:39:14;27.30;50.20
46720;DHT22;32452;51.382;-0.002;2022-08-20T07:42:00;27.50;49.80
46720;DHT22;32452;51.382;-0.002;2022-08-20T07:44:51;27.60;49.10
46720;DHT22;32452;51.382;-0.002;2022-08-20T07:47:38;27.80;49.20
46720;DHT22;32452;51.382;-0.002;2022-08-20T07:50:25;28.00;48.60
46720;DHT22;32452;51.382;-0.002;2022-08-20T07:53:11;28.10;48.00
46720;DHT22;32452;51.382;-0.002;2022-08-20T07:55:56;28.10;48.00
46720;DHT22;32452;51.382;-0.002;2022-08-20T07:58:46;28.20;47.50
46720;DHT22;32452;51.382;-0.002;2022-08-20T08:01:34;28.30;47.00
46720;DHT22;32452;51.382;-0.002;2022-08-20T08:04:19;28.30;46.90
46720;DHT22;32452;51.382;-0.002;2022-08-20T08:07:05;28.50;46.40
46720;DHT22;32452;51.382;-0.002;2022-08-20T08:09:52;28.70;46.00
46720;DHT22;32452;51.382;-0.002;2022-08-20T08:12:41;28.80;45.00
46720;DHT22;32452;51.382;-0.002;2022-08-20T08:15:30;28.80;44.90
46720;DHT22;32452;51.382;-0.002;2022-08-20T08:18:20;28.90;44.60
46720;DHT22;32452;51.382;-0.002;2022-08-20T08:21:14;29.00;43.90
46720;DHT22;32452;51.382;-0.002;2022-08-20T08:24:00;29.00;43.30
46720;DHT22;32452;51.382;-0.002;2022-08-20T08:26:46;29.10;42.90
46720;DHT22;32452;51.382;-0.002;2022-08-20T08:29:35;29.20;42.30
46720;DHT22;32452;51.382;-0.002;2022-08-20T08:32:20;29.20;41.90
46720;DHT22;32452;51.382;-0.002;2022-08-20T08:35:06;29.40;41.60
46720;DHT22;32452;51.382;-0.002;2022-08-20T08:37:53;29.50;40.80
46720;DHT22;32452;51.382;-0.002;2022-08-20T08:40:38;29.50;40.60
46720;DHT22;32452;51.382;-0.002;2022-08-20T08:43:26;29.70;40.40
46720;DHT22;32452;51.382;-0.002;2022-08-20T08:46:18;30.00;39.60
46720;DHT22;32452;51.382;-0.002;2022-08-20T08:49:10;29.80;39.20
46720;DHT22;32452;51.382;-0.002;2022-08-20T08:52:19;29.40;39.10
46720;DHT22;32452;51.382;-0.002;2022-08-20T08:55:11;29.00;39.30
46720;DHT22;32452;51.382;-0.002;2022-08-20T08:58:02;28.40;39.70
46720;DHT22;32452;51.382;-0.002;2022-08-20T09:01:17;27.60;40.50
46720;DHT22;32452;51.382;-0.002;2022-08-20T09:04:37;27.40;40.40
46720;DHT22;32452;51.382;-0.002;2022-08-20T09:07:25;27.40;40.80
46720;DHT22;32452;51.382;-0.002;2022-08-20T09:10:15;27.80;40.20
46720;DHT22;32452;51.382;-0.002;2022-08-20T09:13:07;28.20;40.00
46720;DHT22;32452;51.382;-0.002;2022-08-20T09:15:53;28.50;39.30
46720;DHT22;32452;51.382;-0.002;2022-08-20T09:18:39;28.90;39.00
46720;DHT22;32452;51.382;-0.002;2022-08-20T09:21:24;29.30;38.60
46720;DHT22;32452;51.382;-0.002;2022-08-20T09:24:10;29.60;38.10
46720;DHT22;32452;51.382;-0.002;2022-08-20T09:26:56;29.50;37.50
46720;DHT22;32452;51.382;-0.002;2022-08-20T09:29:41;28.90;37.90
46720;DHT22;32452;51.382;-0.002;2022-08-20T09:32:27;28.40;38.90
46720;DHT22;32452;51.382;-0.002;2022-08-20T09:35:13;28.00;39.50
46720;DHT22;32452;51.382;-0.002;2022-08-20T09:37:58;28.00;39.90
46720;DHT22;32452;51.382;-0.002;2022-08-20T09:40:44;27.50;40.20
46720;DHT22;32452;51.382;-0.002;2022-08-20T09:43:30;27.10;40.70
46720;DHT22;32452;51.382;-0.002;2022-08-20T09:46:15;27.10;40.90
46720;DHT22;32452;51.382;-0.002;2022-08-20T09:49:01;27.00;40.70
46720;DHT22;32452;51.382;-0.002;2022-08-20T09:51:46;26.80;40.90
46720;DHT22;32452;51.382;-0.002;2022-08-20T09:54:33;26.90;41.00
46720;DHT22;32452;51.382;-0.002;2022-08-20T09:57:19;26.80;41.00
46720;DHT22;32452;51.382;-0.002;2022-08-20T10:00:06;26.70;41.40
46720;DHT22;32452;51.382;-0.002;2022-08-20T10:02:53;26.70;41.60
46720;DHT22;32452;51.382;-0.002;2022-08-20T10:05:38;26.60;41.70
46720;DHT22;32452;51.382;-0.002;2022-08-20T10:08:24;26.60;41.80
46720;DHT22;32452;51.382;-0.002;2022-08-20T10:11:13;27.00;42.10
46720;DHT22;32452;51.382;-0.002;2022-08-20T10:13:59;27.20;41.90
46720;DHT22;32452;51.382;-0.002;2022-08-20T10:16:45;27.20;41.80
46720;DHT22;32452;51.382;-0.002;2022-08-20T10:19:31;27.00;41.90
46720;DHT22;32452;51.382;-0.002;2022-08-20T10:22:16;26.60;42.50
46720;DHT22;32452;51.382;-0.002;2022-08-20T10:25:03;26.20;42.90
46720;DHT22;32452;51.382;-0.002;2022-08-20T10:27:50;25.80;43.30
46720;DHT22;32452;51.382;-0.002;2022-08-20T10:30:35;26.10;43.60
46720;DHT22;32452;51.382;-0.002;2022-08-20T10:33:21;26.90;43.30
46720;DHT22;32452;51.382;-0.002;2022-08-20T10:36:12;27.70;42.30
46720;DHT22;32452;51.382;-0.002;2022-08-20T10:38:58;28.50;41.10
46720;DHT22;32452;51.382;-0.002;2022-08-20T10:41:43;28.80;40.20
46720;DHT22;32452;51.382;-0.002;2022-08-20T10:44:29;28.60;40.10
46720;DHT22;32452;51.382;-0.002;2022-08-20T10:47:21;28.60;39.90
46720;DHT22;32452;51.382;-0.002;2022-08-20T10:50:13;28.40;39.80
46720;DHT22;32452;51.382;-0.002;2022-08-20T10:52:59;28.30;40.00
46720;DHT22;32452;51.382;-0.002;2022-08-20T10:55:44;28.10;40.20
46720;DHT22;32452;51.382;-0.002;2022-08-20T10:58:30;27.90;40.40
46720;DHT22;32452;51.382;-0.002;2022-08-20T11:01:24;27.60;40.80
46720;DHT22;32452;51.382;-0.002;2022-08-20T11:04:17;27.20;41.30
46720;DHT22;32452;51.382;-0.002;2022-08-20T11:07:38;26.80;41.80
46720;DHT22;32452;51.382;-0.002;2022-08-20T11:10:40;26.50;42.40
46720;DHT22;32452;51.382;-0.002;2022-08-20T11:13:26;26.60;42.80
46720;DHT22;32452;51.382;-0.002;2022-08-20T11:16:12;27.00;42.50
46720;DHT22;32452;51.382;-0.002;2022-08-20T11:18:58;27.20;42.40
46720;DHT22;32452;51.382;-0.002;2022-08-20T11:21:43;27.30;41.90
46720;DHT22;32452;51.382;-0.002;2022-08-20T11:24:29;27.20;41.80
46720;DHT22;32452;51.382;-0.002;2022-08-20T11:27:21;27.00;42.20
46720;DHT22;32452;51.382;-0.002;2022-08-20T11:30:10;26.70;42.70
46720;DHT22;32452;51.382;-0.002;2022-08-20T11:32:57;26.50;42.90
46720;DHT22;32452;51.382;-0.002;2022-08-20T11:35:43;26.40;43.20
46720;DHT22;32452;51.382;-0.002;2022-08-20T11:38:34;26.30;43.20
46720;DHT22;32452;51.382;-0.002;2022-08-20T11:41:19;26.30;43.20
46720;DHT22;32452;51.382;-0.002;2022-08-20T11:44:05;26.20;43.30
46720;DHT22;32452;51.382;-0.002;2022-08-20T11:47:06;26.00;43.40
46720;DHT22;32452;51.382;-0.002;2022-08-20T11:50:06;25.90;43.70
46720;DHT22;32452;51.382;-0.002;2022-08-20T11:52:52;25.90;43.80
46720;DHT22;32452;51.382;-0.002;2022-08-20T11:55:38;26.00;43.60
46720;DHT22;32452;51.382;-0.002;2022-08-20T11:58:24;26.00;43.00
46720;DHT22;32452;51.382;-0.002;2022-08-20T12:01:09;25.90;42.90
46720;DHT22;32452;51.382;-0.002;2022-08-20T12:03:55;25.70;42.80
46720;DHT22;32452;51.382;-0.002;2022-08-20T12:06:40;25.60;43.20
46720;DHT22;32452;51.382;-0.002;2022-08-20T12:09:26;25.40;43.60
46720;DHT22;32452;51.382;-0.002;2022-08-20T12:12:14;25.30;43.70
46720;DHT22;32452;51.382;-0.002;2022-08-20T12:14:59;25.20;43.90
46720;DHT22;32452;51.382;-0.002;2022-08-20T12:17:45;25.20;44.20
46720;DHT22;32452;51.382;-0.002;2022-08-20T12:20:30;25.40;44.50
46720;DHT22;32452;51.382;-0.002;2022-08-20T12:23:16;25.70;43.90
46720;DHT22;32452;51.382;-0.002;2022-08-20T12:26:01;25.80;43.70
46720;DHT22;32452;51.382;-0.002;2022-08-20T12:28:47;25.80;43.50
46720;DHT22;32452;51.382;-0.002;2022-08-20T12:31:33;25.80;43.30
46720;DHT22;32452;51.382;-0.002;2022-08-20T12:34:18;26.10;43.40
46720;DHT22;32452;51.382;-0.002;2022-08-20T12:37:07;26.40;43.00
46720;DHT22;32452;51.382;-0.002;2022-08-20T12:40:02;26.80;42.60
46720;DHT22;32452;51.382;-0.002;2022-08-20T12:42:49;27.10;42.00
46720;DHT22;32452;51.382;-0.002;2022-08-20T12:45:35;27.30;41.40
46720;DHT22;32452;51.382;-0.002;2022-08-20T12:48:21;27.30;40.80
46720;DHT22;32452;51.382;-0.002;2022-08-20T12:51:07;27.10;40.80
46720;DHT22;32452;51.382;-0.002;2022-08-20T12:53:52;26.90;41.00
46720;DHT22;32452;51.382;-0.002;2022-08-20T12:56:38;26.70;41.40
46720;DHT22;32452;51.382;-0.002;2022-08-20T12:59:24;26.50;41.60
46720;DHT22;32452;51.382;-0.002;2022-08-20T13:02:10;26.50;41.80
46720;DHT22;32452;51.382;-0.002;2022-08-20T13:05:04;26.40;42.00
46720;DHT22;32452;51.382;-0.002;2022-08-20T13:07:50;26.30;42.10
46720;DHT22;32452;51.382;-0.002;2022-08-20T13:10:39;26.20;42.40
46720;DHT22;32452;51.382;-0.002;2022-08-20T13:13:31;26.20;42.70
46720;DHT22;32452;51.382;-0.002;2022-08-20T13:16:16;26.20;42.80
46720;DHT22;32452;51.382;-0.002;2022-08-20T13:19:01;26.20;43.00
46720;DHT22;32452;51.382;-0.002;2022-08-20T13:21:47;26.20;42.50
46720;DHT22;32452;51.382;-0.002;2022-08-20T13:24:39;26.20;42.30
46720;DHT22;32452;51.382;-0.002;2022-08-20T13:27:25;26.10;42.50
46720;DHT22;32452;51.382;-0.002;2022-08-20T13:30:14;26.10;42.40
46720;DHT22;32452;51.382;-0.002;2022-08-20T13:33:00;26.00;42.50
46720;DHT22;32452;51.382;-0.002;2022-08-20T13:35:46;25.80;42.90
46720;DHT22;32452;51.382;-0.002;2022-08-20T13:38:32;25.80;43.20
46720;DHT22;32452;51.382;-0.002;2022-08-20T13:41:17;25.70;43.30
46720;DHT22;32452;51.382;-0.002;2022-08-20T13:44:03;25.70;43.40
46720;DHT22;32452;51.382;-0.002;2022-08-20T13:46:48;25.70;43.40
46720;DHT22;32452;51.382;-0.002;2022-08-20T13:49:34;25.80;43.40
46720;DHT22;32452;51.382;-0.002;2022-08-20T13:52:20;25.90;43.40
46720;DHT22;32452;51.382;-0.002;2022-08-20T13:55:07;26.00;43.50
46720;DHT22;32452;51.382;-0.002;2022-08-20T13:57:54;26.20;43.40
46720;DHT22;32452;51.382;-0.002;2022-08-20T14:00:40;26.30;43.00
46720;DHT22;32452;51.382;-0.002;2022-08-20T14:03:26;26.30;42.70
46720;DHT22;32452;51.382;-0.002;2022-08-20T14:06:12;26.20;42.50
46720;DHT22;32452;51.382;-0.002;2022-08-20T14:08:57;26.10;42.70
46720;DHT22;32452;51.382;-0.002;2022-08-20T14:11:43;26.30;43.00
46720;DHT22;32452;51.382;-0.002;2022-08-20T14:14:28;26.40;42.80
46720;DHT22;32452;51.382;-0.002;2022-08-20T14:17:38;26.50;42.70
46720;DHT22;32452;51.382;-0.002;2022-08-20T14:20:30;26.40;42.50
46720;DHT22;32452;51.382;-0.002;2022-08-20T14:23:16;26.20;43.20
46720;DHT22;32452;51.382;-0.002;2022-08-20T14:26:02;26.10;42.70
46720;DHT22;32452;51.382;-0.002;2022-08-20T14:28:47;26.20;42.90
46720;DHT22;32452;51.382;-0.002;2022-08-20T14:31:33;26.30;42.90
46720;DHT22;32452;51.382;-0.002;2022-08-20T14:34:19;26.40;42.70
46720;DHT22;32452;51.382;-0.002;2022-08-20T14:39:59;26.30;42.60
46720;DHT22;32452;51.382;-0.002;2022-08-20T14:42:45;26.30;42.70
46720;DHT22;32452;51.382;-0.002;2022-08-20T14:45:36;26.20;42.80
46720;DHT22;32452;51.382;-0.002;2022-08-20T14:48:21;26.10;42.70
46720;DHT22;32452;51.382;-0.002;2022-08-20T14:51:09;26.00;42.90
46720;DHT22;32452;51.382;-0.002;2022-08-20T14:53:55;25.90;43.30
46720;DHT22;32452;51.382;-0.002;2022-08-20T14:56:40;25.90;43.50
46720;DHT22;32452;51.382;-0.002;2022-08-20T14:59:26;25.80;43.60
46720;DHT22;32452;51.382;-0.002;2022-08-20T15:02:13;25.80;43.50
46720;DHT22;32452;51.382;-0.002;2022-08-20T15:04:59;25.80;43.80
46720;DHT22;32452;51.382;-0.002;2022-08-20T15:07:47;25.80;43.80
46720;DHT22;32452;51.382;-0.002;2022-08-20T15:10:36;25.90;43.60
46720;DHT22;32452;51.382;-0.002;2022-08-20T15:13:23;25.90;43.50
46720;DHT22;32452;51.382;-0.002;2022-08-20T15:16:08;25.90;43.50
46720;DHT22;32452;51.382;-0.002;2022-08-20T15:18:54;25.80;43.40
46720;DHT22;32452;51.382;-0.002;2022-08-20T15:21:44;25.80;43.70
46720;DHT22;32452;51.382;-0.002;2022-08-20T15:24:30;25.70;43.80
46720;DHT22;32452;51.382;-0.002;2022-08-20T15:27:18;25.60;43.90
46720;DHT22;32452;51.382;-0.002;2022-08-20T15:30:10;25.60;44.10
46720;DHT22;32452;51.382;-0.002;2022-08-20T15:32:57;25.50;44.20
46720;DHT22;32452;51.382;-0.002;2022-08-20T15:35:43;25.40;44.30
46720;DHT22;32452;51.382;-0.002;2022-08-20T15:38:29;25.40;44.30
46720;DHT22;32452;51.382;-0.002;2022-08-20T15:41:14;25.30;44.30
46720;DHT22;32452;51.382;-0.002;2022-08-20T15:44:00;25.30;44.50
46720;DHT22;32452;51.382;-0.002;2022-08-20T15:46:45;25.20;44.60
46720;DHT22;32452;51.382;-0.002;2022-08-20T15:49:31;25.30;44.40
46720;DHT22;32452;51.382;-0.002;2022-08-20T15:52:16;25.30;44.20
46720;DHT22;32452;51.382;-0.002;2022-08-20T15:55:03;25.30;44.30
46720;DHT22;32452;51.382;-0.002;2022-08-20T16:03:33;25.00;44.70
46720;DHT22;32452;51.382;-0.002;2022-08-20T16:06:24;24.80;45.00
46720;DHT22;32452;51.382;-0.002;2022-08-20T16:12:43;24.70;45.40
46720;DHT22;32452;51.382;-0.002;2022-08-20T16:15:34;24.70;45.40
46720;DHT22;32452;51.382;-0.002;2022-08-20T16:18:26;24.70;45.60
46720;DHT22;32452;51.382;-0.002;2022-08-20T16:21:14;24.70;45.70
46720;DHT22;32452;51.382;-0.002;2022-08-20T16:24:01;24.70;45.70
46720;DHT22;32452;51.382;-0.002;2022-08-20T16:30:08;24.70;46.20
46720;DHT22;32452;51.382;-0.002;2022-08-20T16:33:09;24.70;46.70
46720;DHT22;32452;51.382;-0.002;2022-08-20T16:36:06;24.60;48.30
46720;DHT22;32452;51.382;-0.002;2022-08-20T16:39:00;24.50;49.30
46720;DHT22;32452;51.382;-0.002;2022-08-20T16:41:50;24.40;49.90
46720;DHT22;32452;51.382;-0.002;2022-08-20T16:44:43;24.30;50.20
46720;DHT22;32452;51.382;-0.002;2022-08-20T16:47:33;24.30;50.60
46720;DHT22;32452;51.382;-0.002;2022-08-20T16:50:28;24.20;50.90
46720;DHT22;32452;51.382;-0.002;2022-08-20T16:53:21;24.30;51.10
46720;DHT22;32452;51.382;-0.002;2022-08-20T16:56:08;24.30;50.10
46720;DHT22;32452;51.382;-0.002;2022-08-20T16:58:53;24.40;49.40
46720;DHT22;32452;51.382;-0.002;2022-08-20T17:01:39;24.40;48.90
46720;DHT22;32452;51.382;-0.002;2022-08-20T17:04:25;24.40;48.90
46720;DHT22;32452;51.382;-0.002;2022-08-20T17:07:10;24.40;49.10
46720;DHT22;32452;51.382;-0.002;2022-08-20T17:10:31;24.30;49.40
46720;DHT22;32452;51.382;-0.002;2022-08-20T17:16:23;24.20;49.90
46720;DHT22;32452;51.382;-0.002;2022-08-20T17:22:12;24.10;50.40
46720;DHT22;32452;51.382;-0.002;2022-08-20T17:25:13;24.10;50.60
46720;DHT22;32452;51.382;-0.002;2022-08-20T17:27:59;24.00;51.10
46720;DHT22;32452;51.382;-0.002;2022-08-20T17:30:56;24.00;51.40
46720;DHT22;32452;51.382;-0.002;2022-08-20T17:33:44;23.80;51.60
46720;DHT22;32452;51.382;-0.002;2022-08-20T17:36:30;23.70;51.90
46720;DHT22;32452;51.382;-0.002;2022-08-20T17:39:18;23.60;52.20
46720;DHT22;32452;51.382;-0.002;2022-08-20T17:42:07;23.60;52.60
46720;DHT22;32452;51.382;-0.002;2022-08-20T17:45:13;23.40;52.80
46720;DHT22;32452;51.382;-0.002;2022-08-20T17:48:00;23.40;53.10
46720;DHT22;32452;51.382;-0.002;2022-08-20T17:50:45;23.30;53.30
46720;DHT22;32452;51.382;-0.002;2022-08-20T17:53:34;23.20;53.50